Terminal Aerodrome Forecast
Issued by NWS

Home | Current Version | Previous Version | Text Only | Print | Product List | Glossary On
Versions: 1 2 3 4 5 6 7 8 9 10 11 12 13 14 15 16 17 18 19 20
000
FTUS45 KGJT 231735 AAA
TAFTEX
TAF AMD
KTEX 231735Z 2318/2418 16012G22KT P6SM -SHRASN SCT040 BKN060
     FM232000 24010G18KT 5SM -SHRASN VCTS SCT025 BKN040CB
     FM240000 26010G18KT 3SM -SHSNRA BR BKN015 OVC030
      TEMPO 2402/2403 1 1/2SM -SHSN BR SCT008 OVC015
     FM240300 29009KT 1SM -SHSN BR BKN008 OVC015
     FM241100 28012G25KT 3SM BR VCSH OVC025
     FM241500 27010G20KT P6SM SCT030 BKN070=

USA.gov is the U.S. government's official web portal to all federal, state and local government web resources and services.